Flugwetter

[source: ADDS]
METAR
LOWL 252050Z 13004KT CAVOK 06/01 Q1039 NOSIG =
TAF LOWL 251715Z 2518/2618 30005KT 9999 SCT060 TX15/2615Z TN02/2605Z BECMG 2518/2520 07003KT CAVOK TEMPO 2608/2615 09010KT 9999 FEW040 SCT300
TAF
TAF LOWL 251715Z 2518/2618 30005KT 9999 SCT060 TX15/2615Z TN02/2605Z BECMG 2518/2520 07003KT CAVOK TEMPO 2608/2615 09010KT 9999 FEW040 SCT300 =